sensor_id;sensor_type;location;lat;lon;timestamp;pressure;altitude;pressure_sealevel;temperature;humidity
5988;BME280;3021;51.000;6.980;2024-01-10T00:00:47;65561.97;;;-6.80;100.00
5988;BME280;3021;51.000;6.980;2024-01-10T00:03:13;65588.06;;;-6.81;100.00
5988;BME280;3021;51.000;6.980;2024-01-10T00:05:38;65587.13;;;-6.79;100.00
5988;BME280;3021;51.000;6.980;2024-01-10T00:08:04;65557.78;;;-6.79;100.00
5988;BME280;3021;51.000;6.980;2024-01-10T00:10:30;65563.69;;;-6.79;100.00
5988;BME280;3021;51.000;6.980;2024-01-10T00:12:55;65563.28;;;-6.77;100.00
5988;BME280;3021;51.000;6.980;2024-01-10T00:15:20;65560.63;;;-6.77;100.00
5988;BME280;3021;51.000;6.980;2024-01-10T00:17:46;65567.09;;;-6.75;100.00
5988;BME280;3021;51.000;6.980;2024-01-10T00:20:11;65558.53;;;-6.76;100.00
5988;BME280;3021;51.000;6.980;2024-01-10T00:22:36;65565.97;;;-6.77;100.00
5988;BME280;3021;51.000;6.980;2024-01-10T00:25:02;65578.16;;;-6.78;100.00
5988;BME280;3021;51.000;6.980;2024-01-10T00:27:27;65562.56;;;-6.80;100.00
5988;BME280;3021;51.000;6.980;2024-01-10T00:29:52;65558.19;;;-6.81;100.00
5988;BME280;3021;51.000;6.980;2024-01-10T00:32:18;65559.72;;;-6.82;100.00
5988;BME280;3021;51.000;6.980;2024-01-10T00:34:44;65558.75;;;-6.81;100.00
5988;BME280;3021;51.000;6.980;2024-01-10T00:37:09;65556.63;;;-6.80;100.00
5988;BME280;3021;51.000;6.980;2024-01-10T00:39:35;65611.88;;;-6.83;100.00
5988;BME280;3021;51.000;6.980;2024-01-10T00:42:00;65555.72;;;-6.86;100.00
5988;BME280;3021;51.000;6.980;2024-01-10T00:44:25;65549.25;;;-6.87;100.00
5988;BME280;3021;51.000;6.980;2024-01-10T00:46:51;65553.84;;;-6.90;100.00
5988;BME280;3021;51.000;6.980;2024-01-10T00:49:16;65548.50;;;-6.90;100.00
5988;BME280;3021;51.000;6.980;2024-01-10T00:51:41;65571.59;;;-6.96;100.00
5988;BME280;3021;51.000;6.980;2024-01-10T00:54:07;65569.88;;;-6.97;100.00
5988;BME280;3021;51.000;6.980;2024-01-10T00:56:32;65536.34;;;-6.96;100.00
5988;BME280;3021;51.000;6.980;2024-01-10T00:58:57;65538.66;;;-7.01;100.00
5988;BME280;3021;51.000;6.980;2024-01-10T01:01:23;65540.75;;;-7.02;100.00
5988;BME280;3021;51.000;6.980;2024-01-10T01:03:49;65535.81;;;-7.04;100.00
5988;BME280;3021;51.000;6.980;2024-01-10T01:06:15;65532.97;;;-7.06;100.00
5988;BME280;3021;51.000;6.980;2024-01-10T01:08:40;65557.38;;;-7.08;100.00
5988;BME280;3021;51.000;6.980;2024-01-10T01:11:05;65534.50;;;-7.07;100.00
5988;BME280;3021;51.000;6.980;2024-01-10T01:13:31;65554.50;;;-7.11;100.00
5988;BME280;3021;51.000;6.980;2024-01-10T01:15:56;65523.09;;;-7.10;100.00
5988;BME280;3021;51.000;6.980;2024-01-10T01:18:22;65521.41;;;-7.12;100.00
5988;BME280;3021;51.000;6.980;2024-01-10T01:20:47;65524.63;;;-7.12;100.00
5988;BME280;3021;51.000;6.980;2024-01-10T01:23:15;65529.94;;;-7.12;100.00
5988;BME280;3021;51.000;6.980;2024-01-10T01:25:41;65523.50;;;-7.13;100.00
5988;BME280;3021;51.000;6.980;2024-01-10T01:28:06;65520.25;;;-7.13;100.00
5988;BME280;3021;51.000;6.980;2024-01-10T01:30:31;65530.53;;;-7.11;100.00
5988;BME280;3021;51.000;6.980;2024-01-10T01:32:57;65543.28;;;-7.12;100.00
5988;BME280;3021;51.000;6.980;2024-01-10T01:35:22;65527.69;;;-7.14;100.00
5988;BME280;3021;51.000;6.980;2024-01-10T01:37:49;65521.94;;;-7.12;100.00
5988;BME280;3021;51.000;6.980;2024-01-10T01:40:14;65523.69;;;-7.10;100.00
5988;BME280;3021;51.000;6.980;2024-01-10T01:42:40;65521.94;;;-7.12;100.00
5988;BME280;3021;51.000;6.980;2024-01-10T01:45:05;65522.34;;;-7.14;100.00
5988;BME280;3021;51.000;6.980;2024-01-10T01:47:31;65525.56;;;-7.13;100.00
5988;BME280;3021;51.000;6.980;2024-01-10T01:49:57;65524.06;;;-7.12;100.00
5988;BME280;3021;51.000;6.980;2024-01-10T01:52:23;65551.25;;;-7.12;100.00
5988;BME280;3021;51.000;6.980;2024-01-10T01:54:49;65524.47;;;-7.14;100.00
5988;BME280;3021;51.000;6.980;2024-01-10T01:57:14;65525.19;;;-7.11;100.00
5988;BME280;3021;51.000;6.980;2024-01-10T01:59:40;65521.94;;;-7.12;100.00
5988;BME280;3021;51.000;6.980;2024-01-10T02:02:05;65584.22;;;-7.13;100.00
5988;BME280;3021;51.000;6.980;2024-01-10T02:04:31;65515.31;;;-7.15;100.00
5988;BME280;3021;51.000;6.980;2024-01-10T02:06:57;65521.59;;;-7.17;100.00
5988;BME280;3021;51.000;6.980;2024-01-10T02:09:23;65518.38;;;-7.17;100.00
5988;BME280;3021;51.000;6.980;2024-01-10T02:11:48;65521.59;;;-7.17;100.00
5988;BME280;3021;51.000;6.980;2024-01-10T02:14:14;65523.72;;;-7.17;100.00
5988;BME280;3021;51.000;6.980;2024-01-10T02:16:40;65515.53;;;-7.20;100.00
5988;BME280;3021;51.000;6.980;2024-01-10T02:19:19;65518.75;;;-7.19;100.00
5988;BME280;3021;51.000;6.980;2024-01-10T02:21:45;65506.81;;;-7.23;100.00
5988;BME280;3021;51.000;6.980;2024-01-10T02:24:10;65504.72;;;-7.30;100.00
5988;BME280;3021;51.000;6.980;2024-01-10T02:26:36;65506.84;;;-7.30;100.00
5988;BME280;3021;51.000;6.980;2024-01-10T02:29:01;65524.38;;;-7.38;100.00
5988;BME280;3021;51.000;6.980;2024-01-10T02:31:26;65517.91;;;-7.39;100.00
5988;BME280;3021;51.000;6.980;2024-01-10T02:33:52;65496.41;;;-7.42;100.00
5988;BME280;3021;51.000;6.980;2024-01-10T02:36:18;65518.13;;;-7.44;100.00
5988;BME280;3021;51.000;6.980;2024-01-10T02:38:43;65489.97;;;-7.43;100.00
5988;BME280;3021;51.000;6.980;2024-01-10T02:41:08;65494.16;;;-7.44;100.00
5988;BME280;3021;51.000;6.980;2024-01-10T02:43:34;65491.84;;;-7.46;100.00
5988;BME280;3021;51.000;6.980;2024-01-10T02:45:59;65515.28;;;-7.47;100.00
5988;BME280;3021;51.000;6.980;2024-01-10T02:48:25;65483.13;;;-7.49;100.00
5988;BME280;3021;51.000;6.980;2024-01-10T02:50:50;65483.72;;;-7.49;100.00
5988;BME280;3021;51.000;6.980;2024-01-10T02:53:15;65488.81;;;-7.44;100.00
5988;BME280;3021;51.000;6.980;2024-01-10T02:55:42;65478.97;;;-7.55;100.00
5988;BME280;3021;51.000;6.980;2024-01-10T02:58:08;65475.16;;;-7.56;100.00
5988;BME280;3021;51.000;6.980;2024-01-10T03:00:33;65477.28;;;-7.57;100.00
5988;BME280;3021;51.000;6.980;2024-01-10T03:02:59;65479.53;;;-7.55;100.00
5988;BME280;3021;51.000;6.980;2024-01-10T03:05:24;65478.03;;;-7.54;100.00
5988;BME280;3021;51.000;6.980;2024-01-10T03:07:50;65473.09;;;-7.56;100.00
5988;BME280;3021;51.000;6.980;2024-01-10T03:10:15;65468.69;;;-7.57;100.00
5988;BME280;3021;51.000;6.980;2024-01-10T03:12:40;65480.69;;;-7.54;100.00
5988;BME280;3021;51.000;6.980;2024-01-10T03:15:06;65474.63;;;-7.57;100.00
5988;BME280;3021;51.000;6.980;2024-01-10T03:17:31;65495.91;;;-7.57;100.00
5988;BME280;3021;51.000;6.980;2024-01-10T03:19:59;65482.97;;;-7.59;100.00
5988;BME280;3021;51.000;6.980;2024-01-10T03:22:25;65478.22;;;-7.58;100.00
5988;BME280;3021;51.000;6.980;2024-01-10T03:24:51;65480.91;;;-7.58;100.00
5988;BME280;3021;51.000;6.980;2024-01-10T03:27:16;65474.03;;;-7.57;100.00
5988;BME280;3021;51.000;6.980;2024-01-10T03:29:41;65475.94;;;-7.60;100.00
5988;BME280;3021;51.000;6.980;2024-01-10T03:32:07;65470.44;;;-7.63;100.00
5988;BME280;3021;51.000;6.980;2024-01-10T03:34:32;65496.50;;;-7.64;100.00
5988;BME280;3021;51.000;6.980;2024-01-10T03:36:57;65467.78;;;-7.63;100.00
5988;BME280;3021;51.000;6.980;2024-01-10T03:39:23;65467.44;;;-7.68;100.00
5988;BME280;3021;51.000;6.980;2024-01-10T03:41:48;65487.41;;;-7.72;100.00
5988;BME280;3021;51.000;6.980;2024-01-10T03:44:14;65459.66;;;-7.73;100.00
5988;BME280;3021;51.000;6.980;2024-01-10T03:46:39;65460.78;;;-7.72;100.00
5988;BME280;3021;51.000;6.980;2024-01-10T03:49:04;65488.56;;;-7.71;100.00
5988;BME280;3021;51.000;6.980;2024-01-10T03:51:30;65481.13;;;-7.70;100.00
5988;BME280;3021;51.000;6.980;2024-01-10T03:53:55;65456.59;;;-7.71;100.00
5988;BME280;3021;51.000;6.980;2024-01-10T03:56:21;65490.81;;;-7.69;100.00
5988;BME280;3021;51.000;6.980;2024-01-10T03:58:46;65462.09;;;-7.68;100.00
5988;BME280;3021;51.000;6.980;2024-01-10T04:01:14;65482.25;;;-7.69;100.00
5988;BME280;3021;51.000;6.980;2024-01-10T04:03:39;65489.69;;;-7.70;100.00
5988;BME280;3021;51.000;6.980;2024-01-10T04:06:07;65459.81;;;-7.70;100.00
5988;BME280;3021;51.000;6.980;2024-01-10T04:08:32;65459.44;;;-7.68;100.00
5988;BME280;3021;51.000;6.980;2024-01-10T04:10:58;65461.53;;;-7.69;100.00
5988;BME280;3021;51.000;6.980;2024-01-10T04:13:24;65459.44;;;-7.68;100.00
5988;BME280;3021;51.000;6.980;2024-01-10T04:15:49;65489.88;;;-7.67;100.00
5988;BME280;3021;51.000;6.980;2024-01-10T04:18:15;65466.28;;;-7.69;100.00
5988;BME280;3021;51.000;6.980;2024-01-10T04:20:40;65460.59;;;-7.67;100.00
5988;BME280;3021;51.000;6.980;2024-01-10T04:23:06;65489.09;;;-7.70;100.00
5988;BME280;3021;51.000;6.980;2024-01-10T04:25:31;65459.25;;;-7.71;100.00
5988;BME280;3021;51.000;6.980;2024-01-10T04:27:56;65488.00;;;-7.71;100.00
5988;BME280;3021;51.000;6.980;2024-01-10T04:30:22;65460.78;;;-7.72;100.00
5988;BME280;3021;51.000;6.980;2024-01-10T04:32:48;65462.88;;;-7.72;100.00
5988;BME280;3021;51.000;6.980;2024-01-10T04:35:14;65488.00;;;-7.71;100.00
5988;BME280;3021;51.000;6.980;2024-01-10T04:37:39;65462.88;;;-7.72;100.00
5988;BME280;3021;51.000;6.980;2024-01-10T04:40:06;65459.09;;;-7.73;100.00
5988;BME280;3021;51.000;6.980;2024-01-10T04:42:31;65461.38;;;-7.71;100.00
5988;BME280;3021;51.000;6.980;2024-01-10T04:44:57;65461.38;;;-7.71;100.00
5988;BME280;3021;51.000;6.980;2024-01-10T04:47:22;65489.69;;;-7.70;100.00
5988;BME280;3021;51.000;6.980;2024-01-10T04:49:47;65456.03;;;-7.71;100.00
5988;BME280;3021;51.000;6.980;2024-01-10T04:52:13;65489.09;;;-7.70;100.00
5988;BME280;3021;51.000;6.980;2024-01-10T04:54:38;65459.25;;;-7.71;100.00
5988;BME280;3021;51.000;6.980;2024-01-10T04:57:04;65458.69;;;-7.71;100.00
5988;BME280;3021;51.000;6.980;2024-01-10T04:59:29;65468.56;;;-7.67;100.00
5988;BME280;3021;51.000;6.980;2024-01-10T05:01:55;65490.81;;;-7.69;100.00
5988;BME280;3021;51.000;6.980;2024-01-10T05:04:20;65456.81;;;-7.75;100.00
5988;BME280;3021;51.000;6.980;2024-01-10T05:06:46;65451.13;;;-7.81;100.00
5988;BME280;3021;51.000;6.980;2024-01-10T05:09:12;65451.31;;;-7.78;100.00
5988;BME280;3021;51.000;6.980;2024-01-10T05:11:39;65450.16;;;-7.79;100.00
5988;BME280;3021;51.000;6.980;2024-01-10T05:14:04;65455.50;;;-7.79;100.00
5988;BME280;3021;51.000;6.980;2024-01-10T05:16:29;65474.13;;;-7.79;100.00
5988;BME280;3021;51.000;6.980;2024-01-10T05:18:56;65456.81;;;-7.75;100.00
5988;BME280;3021;51.000;6.980;2024-01-10T05:21:22;65480.59;;;-7.78;100.00
5988;BME280;3021;51.000;6.980;2024-01-10T05:23:47;65452.81;;;-7.79;100.00
5988;BME280;3021;51.000;6.980;2024-01-10T05:26:14;65453.78;;;-7.81;100.00
5988;BME280;3021;51.000;6.980;2024-01-10T05:28:39;65450.56;;;-7.81;100.00
5988;BME280;3021;51.000;6.980;2024-01-10T05:31:05;65443.91;;;-7.85;100.00
5988;BME280;3021;51.000;6.980;2024-01-10T05:33:30;65462.38;;;-7.87;100.00
5988;BME280;3021;51.000;6.980;2024-01-10T05:35:56;65449.81;;;-7.84;100.00
5988;BME280;3021;51.000;6.980;2024-01-10T05:38:21;65444.31;;;-7.87;100.00
5988;BME280;3021;51.000;6.980;2024-01-10T05:40:46;65467.53;;;-7.90;100.00
5988;BME280;3021;51.000;6.980;2024-01-10T05:43:12;65466.94;;;-7.90;100.00
5988;BME280;3021;51.000;6.980;2024-01-10T05:45:38;65458.41;;;-7.91;100.00
5988;BME280;3021;51.000;6.980;2024-01-10T05:48:04;65445.28;;;-7.88;100.00
5988;BME280;3021;51.000;6.980;2024-01-10T05:50:29;65441.66;;;-7.87;100.00
5988;BME280;3021;51.000;6.980;2024-01-10T05:52:55;65465.78;;;-7.84;100.00
5988;BME280;3021;51.000;6.980;2024-01-10T05:55:20;65444.66;;;-7.82;100.00
5988;BME280;3021;51.000;6.980;2024-01-10T05:57:46;65449.03;;;-7.80;100.00
5988;BME280;3021;51.000;6.980;2024-01-10T06:00:12;65450.75;;;-7.78;100.00
5988;BME280;3021;51.000;6.980;2024-01-10T06:02:41;65451.88;;;-7.77;100.00
5988;BME280;3021;51.000;6.980;2024-01-10T06:05:07;65456.22;;;-7.76;100.00
5988;BME280;3021;51.000;6.980;2024-01-10T06:07:37;65449.22;;;-7.77;100.00
5988;BME280;3021;51.000;6.980;2024-01-10T06:10:04;65445.25;;;-7.81;100.00
5988;BME280;3021;51.000;6.980;2024-01-10T06:12:30;65478.31;;;-7.80;100.00
5988;BME280;3021;51.000;6.980;2024-01-10T06:14:55;65451.72;;;-7.80;100.00
5988;BME280;3021;51.000;6.980;2024-01-10T06:17:21;65442.97;;;-7.83;100.00
5988;BME280;3021;51.000;6.980;2024-01-10T06:19:46;65448.13;;;-7.86;100.00
5988;BME280;3021;51.000;6.980;2024-01-10T06:22:12;65445.63;;;-7.83;100.00
5988;BME280;3021;51.000;6.980;2024-01-10T06:24:37;65471.13;;;-7.84;100.00
5988;BME280;3021;51.000;6.980;2024-01-10T06:27:04;65447.16;;;-7.84;100.00
5988;BME280;3021;51.000;6.980;2024-01-10T06:29:31;65470.72;;;-7.82;100.00
5988;BME280;3021;51.000;6.980;2024-01-10T06:31:57;65471.28;;;-7.82;100.00
5988;BME280;3021;51.000;6.980;2024-01-10T06:34:23;65455.50;;;-7.79;100.00
5988;BME280;3021;51.000;6.980;2024-01-10T06:36:50;65459.47;;;-7.75;100.00
5988;BME280;3021;51.000;6.980;2024-01-10T06:39:38;65452.44;;;-7.77;100.00
5988;BME280;3021;51.000;6.980;2024-01-10T06:42:54;65461.75;;;-7.73;100.00
5988;BME280;3021;51.000;6.980;2024-01-10T06:45:29;65455.84;;;-7.74;100.00
5988;BME280;3021;51.000;6.980;2024-01-10T06:47:55;65518.22;;;-7.73;100.00
5988;BME280;3021;51.000;6.980;2024-01-10T06:51:01;65459.09;;;-7.73;100.00
5988;BME280;3021;51.000;6.980;2024-01-10T06:57:14;65456.03;;;-7.71;100.00
5988;BME280;3021;51.000;6.980;2024-01-10T06:59:40;65457.97;;;-7.74;100.00
5988;BME280;3021;51.000;6.980;2024-01-10T07:02:05;65459.66;;;-7.73;100.00
5988;BME280;3021;51.000;6.980;2024-01-10T07:04:30;65486.28;;;-7.73;100.00
5988;BME280;3021;51.000;6.980;2024-01-10T07:06:57;65459.25;;;-7.71;100.00
5988;BME280;3021;51.000;6.980;2024-01-10T07:09:22;65460.00;;;-7.68;100.00
5988;BME280;3021;51.000;6.980;2024-01-10T07:11:48;65463.41;;;-7.65;100.00
5988;BME280;3021;51.000;6.980;2024-01-10T07:14:14;65470.06;;;-7.61;100.00
5988;BME280;3021;51.000;6.980;2024-01-10T07:16:41;65477.84;;;-7.56;100.00
5988;BME280;3021;51.000;6.980;2024-01-10T07:19:11;65477.47;;;-7.54;100.00
5988;BME280;3021;51.000;6.980;2024-01-10T07:21:42;65487.31;;;-7.50;100.00
5988;BME280;3021;51.000;6.980;2024-01-10T07:24:08;65487.13;;;-7.45;100.00
5988;BME280;3021;51.000;6.980;2024-01-10T07:26:35;65486.72;;;-7.43;100.00
5988;BME280;3021;51.000;6.980;2024-01-10T07:29:01;65489.19;;;-7.46;100.00
5988;BME280;3021;51.000;6.980;2024-01-10T07:31:28;65490.91;;;-7.44;100.00
5988;BME280;3021;51.000;6.980;2024-01-10T07:33:55;65486.16;;;-7.44;100.00
5988;BME280;3021;51.000;6.980;2024-01-10T07:36:20;65514.13;;;-7.48;100.00
5988;BME280;3021;51.000;6.980;2024-01-10T07:38:45;65483.31;;;-7.47;100.00
5988;BME280;3021;51.000;6.980;2024-01-10T07:41:11;65515.47;;;-7.44;100.00
5988;BME280;3021;51.000;6.980;2024-01-10T07:43:36;65523.78;;;-7.39;100.00
5988;BME280;3021;51.000;6.980;2024-01-10T07:46:02;65527.22;;;-7.36;100.00
5988;BME280;3021;51.000;6.980;2024-01-10T07:48:27;65499.78;;;-7.32;100.00
5988;BME280;3021;51.000;6.980;2024-01-10T07:50:53;65503.78;;;-7.28;100.00
5988;BME280;3021;51.000;6.980;2024-01-10T07:53:18;65508.69;;;-7.26;100.00
5988;BME280;3021;51.000;6.980;2024-01-10T07:55:43;65512.50;;;-7.25;100.00
5988;BME280;3021;51.000;6.980;2024-01-10T07:58:09;65511.16;;;-7.21;100.00
5988;BME280;3021;51.000;6.980;2024-01-10T08:00:34;65548.25;;;-7.17;100.00
5988;BME280;3021;51.000;6.980;2024-01-10T08:03:00;65523.50;;;-7.13;100.00
5988;BME280;3021;51.000;6.980;2024-01-10T08:05:26;65549.94;;;-7.08;100.00
5988;BME280;3021;51.000;6.980;2024-01-10T08:07:51;65536.56;;;-7.01;100.00
5988;BME280;3021;51.000;6.980;2024-01-10T08:10:17;65544.94;;;-6.96;100.00
5988;BME280;3021;51.000;6.980;2024-01-10T08:12:42;65550.03;;;-6.91;100.00
5988;BME280;3021;51.000;6.980;2024-01-10T08:15:10;65571.72;;;-6.86;100.00
5988;BME280;3021;51.000;6.980;2024-01-10T08:17:35;65563.13;;;-6.79;100.00
5988;BME280;3021;51.000;6.980;2024-01-10T08:20:07;65590.88;;;-6.71;100.00
5988;BME280;3021;51.000;6.980;2024-01-10T08:22:34;65580.38;;;-6.61;100.00
5988;BME280;3021;51.000;6.980;2024-01-10T08:25:01;65592.28;;;-6.50;100.00
5988;BME280;3021;51.000;6.980;2024-01-10T08:27:28;65603.13;;;-6.40;100.00
5988;BME280;3021;51.000;6.980;2024-01-10T08:29:56;65620.00;;;-6.28;100.00
5988;BME280;3021;51.000;6.980;2024-01-10T08:32:25;65630.03;;;-6.14;100.00
5988;BME280;3021;51.000;6.980;2024-01-10T08:34:51;65644.66;;;-6.03;100.00
5988;BME280;3021;51.000;6.980;2024-01-10T08:37:27;65644.44;;;-5.98;100.00
5988;BME280;3021;51.000;6.980;2024-01-10T08:39:59;65652.78;;;-5.93;100.00
5988;BME280;3021;51.000;6.980;2024-01-10T08:42:51;65665.69;;;-5.84;100.00
5988;BME280;3021;51.000;6.980;2024-01-10T08:45:26;65678.44;;;-5.77;100.00
5988;BME280;3021;51.000;6.980;2024-01-10T08:48:18;65676.84;;;-5.69;100.00
5988;BME280;3021;51.000;6.980;2024-01-10T08:51:52;65685.97;;;-5.61;100.00
5988;BME280;3021;51.000;6.980;2024-01-10T08:54:59;65696.06;;;-5.54;100.00
5988;BME280;3021;51.000;6.980;2024-01-10T08:57:51;65702.88;;;-5.48;100.00
5988;BME280;3021;51.000;6.980;2024-01-10T09:00:32;65720.31;;;-5.27;100.00
5988;BME280;3021;51.000;6.980;2024-01-10T09:03:28;65762.34;;;-4.99;100.00
5988;BME280;3021;51.000;6.980;2024-01-10T09:06:28;65814.38;;;-4.49;100.00
5988;BME280;3021;51.000;6.980;2024-01-10T09:09:12;65890.00;;;-3.76;100.00
5988;BME280;3021;51.000;6.980;2024-01-10T09:11:49;65937.53;;;-3.31;100.00
5988;BME280;3021;51.000;6.980;2024-01-10T09:14:14;65987.59;;;-2.88;100.00
5988;BME280;3021;51.000;6.980;2024-01-10T09:16:40;66073.25;;;-2.11;100.00
5988;BME280;3021;51.000;6.980;2024-01-10T09:19:05;66159.31;;;-1.29;100.00
5988;BME280;3021;51.000;6.980;2024-01-10T09:21:31;66251.97;;;-0.45;100.00
5988;BME280;3021;51.000;6.980;2024-01-10T09:23:56;66307.66;;;0.07;100.00
5988;BME280;3021;51.000;6.980;2024-01-10T09:26:22;66276.91;;;-0.18;100.00
5988;BME280;3021;51.000;6.980;2024-01-10T09:28:48;66234.63;;;-0.63;100.00
5988;BME280;3021;51.000;6.980;2024-01-10T09:31:13;66188.13;;;-1.08;100.00
5988;BME280;3021;51.000;6.980;2024-01-10T09:33:38;66149.03;;;-1.38;100.00
5988;BME280;3021;51.000;6.980;2024-01-10T09:36:04;66124.84;;;-1.62;100.00
5988;BME280;3021;51.000;6.980;2024-01-10T09:38:34;66119.28;;;-1.65;100.00
5988;BME280;3021;51.000;6.980;2024-01-10T09:41:00;66134.72;;;-1.51;100.00
5988;BME280;3021;51.000;6.980;2024-01-10T09:43:31;66192.72;;;-1.03;100.00
5988;BME280;3021;51.000;6.980;2024-01-10T09:46:00;66284.81;;;-0.21;100.00
5988;BME280;3021;51.000;6.980;2024-01-10T09:48:25;66351.00;;;0.44;100.00
5988;BME280;3021;51.000;6.980;2024-01-10T09:50:51;66396.81;;;0.85;100.00
5988;BME280;3021;51.000;6.980;2024-01-10T09:53:27;66477.22;;;1.60;100.00
5988;BME280;3021;51.000;6.980;2024-01-10T09:55:53;66595.94;;;2.66;100.00
5988;BME280;3021;51.000;6.980;2024-01-10T09:58:23;66707.91;;;3.67;100.00
5988;BME280;3021;51.000;6.980;2024-01-10T10:00:49;66805.16;;;4.56;100.00
5988;BME280;3021;51.000;6.980;2024-01-10T10:03:15;66848.28;;;4.95;100.00
5988;BME280;3021;51.000;6.980;2024-01-10T10:05:42;66837.78;;;4.83;100.00
5988;BME280;3021;51.000;6.980;2024-01-10T10:08:09;66824.53;;;4.71;100.00
5988;BME280;3021;51.000;6.980;2024-01-10T10:10:36;66795.97;;;4.48;100.00
5988;BME280;3021;51.000;6.980;2024-01-10T10:13:01;66697.16;;;3.59;100.00
5988;BME280;3021;51.000;6.980;2024-01-10T10:15:27;66600.38;;;2.68;100.00
5988;BME280;3021;51.000;6.980;2024-01-10T10:17:53;66511.63;;;1.90;100.00
5988;BME280;3021;51.000;6.980;2024-01-10T10:20:24;66447.25;;;1.30;100.00
5988;BME280;3021;51.000;6.980;2024-01-10T10:23:03;66398.53;;;0.86;100.00
5988;BME280;3021;51.000;6.980;2024-01-10T10:25:29;66371.78;;;0.65;100.00
5988;BME280;3021;51.000;6.980;2024-01-10T10:27:56;66377.34;;;0.67;100.00
5988;BME280;3021;51.000;6.980;2024-01-10T10:30:21;66410.59;;;0.97;100.00
5988;BME280;3021;51.000;6.980;2024-01-10T10:32:47;66490.66;;;1.67;100.00
5988;BME280;3021;51.000;6.980;2024-01-10T10:35:13;66613.75;;;2.82;100.00
5988;BME280;3021;51.000;6.980;2024-01-10T10:37:38;66788.91;;;4.39;100.00
5988;BME280;3021;51.000;6.980;2024-01-10T10:40:05;66901.19;;;5.42;100.00
5988;BME280;3021;51.000;6.980;2024-01-10T10:42:31;66954.13;;;5.89;100.00
5988;BME280;3021;51.000;6.980;2024-01-10T10:45:02;66930.41;;;5.66;100.00
5988;BME280;3021;51.000;6.980;2024-01-10T10:47:36;66747.69;;;4.05;100.00
5988;BME280;3021;51.000;6.980;2024-01-10T10:50:03;66618.91;;;2.87;100.00
5988;BME280;3021;51.000;6.980;2024-01-10T10:52:29;66529.81;;;2.04;100.00
5988;BME280;3021;51.000;6.980;2024-01-10T10:54:56;66464.44;;;1.46;100.00
5988;BME280;3021;51.000;6.980;2024-01-10T10:57:22;66357.47;;;0.52;100.00
5988;BME280;3021;51.000;6.980;2024-01-10T10:59:51;66305.78;;;0.03;100.00
5988;BME280;3021;51.000;6.980;2024-01-10T11:02:21;66259.41;;;-0.39;100.00
5988;BME280;3021;51.000;6.980;2024-01-10T11:04:50;66222.22;;;-0.72;100.00
5988;BME280;3021;51.000;6.980;2024-01-10T11:07:18;66191.34;;;-1.00;100.00
5988;BME280;3021;51.000;6.980;2024-01-10T11:09:45;66171.88;;;-1.17;100.00
5988;BME280;3021;51.000;6.980;2024-01-10T11:12:30;66160.88;;;-1.30;100.00
5988;BME280;3021;51.000;6.980;2024-01-10T11:23:37;66143.28;;;-1.43;100.00
5988;BME280;3021;51.000;6.980;2024-01-10T11:26:04;66156.13;;;-1.36;100.00
5988;BME280;3021;51.000;6.980;2024-01-10T11:28:31;66162.91;;;-1.23;100.00
5988;BME280;3021;51.000;6.980;2024-01-10T11:30:56;66175.91;;;-1.14;100.00
5988;BME280;3021;51.000;6.980;2024-01-10T11:33:30;66179.50;;;-1.08;100.00
5988;BME280;3021;51.000;6.980;2024-01-10T11:41:05;66258.84;;;-0.39;100.00
5988;BME280;3021;51.000;6.980;2024-01-10T11:43:30;66262.44;;;-0.33;100.00
5988;BME280;3021;51.000;6.980;2024-01-10T11:45:56;66292.44;;;-0.11;100.00
5988;BME280;3021;51.000;6.980;2024-01-10T11:48:28;66289.16;;;-0.12;100.00
5988;BME280;3021;51.000;6.980;2024-01-10T11:50:54;66260.56;;;-0.38;100.00
5988;BME280;3021;51.000;6.980;2024-01-10T11:56:14;66259.97;;;-0.38;100.00
5988;BME280;3021;51.000;6.980;2024-01-10T11:59:13;66289.00;;;-0.14;100.00
5988;BME280;3021;51.000;6.980;2024-01-10T12:01:42;66298.88;;;-0.03;100.00
5988;BME280;3021;51.000;6.980;2024-01-10T12:04:08;66317.38;;;0.16;100.00
5988;BME280;3021;51.000;6.980;2024-01-10T12:06:35;66333.25;;;0.28;100.00
5988;BME280;3021;51.000;6.980;2024-01-10T12:09:02;66357.53;;;0.45;100.00
5988;BME280;3021;51.000;6.980;2024-01-10T12:11:33;66369.34;;;0.60;100.00
5988;BME280;3021;51.000;6.980;2024-01-10T12:13:59;66389.38;;;0.78;100.00
5988;BME280;3021;51.000;6.980;2024-01-10T12:16:25;66392.56;;;0.86;100.00
5988;BME280;3021;51.000;6.980;2024-01-10T12:18:50;66418.19;;;1.07;100.00
5988;BME280;3021;51.000;6.980;2024-01-10T12:21:16;66433.25;;;1.23;100.00
5988;BME280;3021;51.000;6.980;2024-01-10T12:23:42;66465.59;;;1.47;100.00
5988;BME280;3021;51.000;6.980;2024-01-10T12:26:10;66475.91;;;1.56;100.00
5988;BME280;3021;51.000;6.980;2024-01-10T12:28:39;66478.94;;;1.61;100.00
5988;BME280;3021;51.000;6.980;2024-01-10T12:31:04;66481.06;;;1.61;100.00
5988;BME280;3021;51.000;6.980;2024-01-10T12:33:31;66451.84;;;1.34;100.00
5988;BME280;3021;51.000;6.980;2024-01-10T12:36:07;66460.44;;;1.42;100.00
5988;BME280;3021;51.000;6.980;2024-01-10T12:38:34;66450.09;;;1.33;100.00
5988;BME280;3021;51.000;6.980;2024-01-10T12:41:00;66453.72;;;1.38;100.00
5988;BME280;3021;51.000;6.980;2024-01-10T12:43:26;66445.28;;;1.33;100.00
5988;BME280;3021;51.000;6.980;2024-01-10T12:48:34;66462.72;;;1.44;100.00
5988;BME280;3021;51.000;6.980;2024-01-10T12:51:03;66462.31;;;1.46;100.00
5988;BME280;3021;51.000;6.980;2024-01-10T12:53:42;66445.84;;;1.34;100.00
5988;BME280;3021;51.000;6.980;2024-01-10T12:56:10;66445.94;;;1.27;100.00
5988;BME280;3021;51.000;6.980;2024-01-10T12:58:40;66454.13;;;1.36;100.00
5988;BME280;3021;51.000;6.980;2024-01-10T13:01:08;66453.56;;;1.36;100.00
5988;BME280;3021;51.000;6.980;2024-01-10T13:03:34;66438.97;;;1.28;100.00
5988;BME280;3021;51.000;6.980;2024-01-10T13:05:59;66443.56;;;1.32;100.00
5988;BME280;3021;51.000;6.980;2024-01-10T13:08:25;66454.47;;;1.42;100.00
5988;BME280;3021;51.000;6.980;2024-01-10T13:10:50;66457.16;;;1.42;100.00
5988;BME280;3021;51.000;6.980;2024-01-10T13:13:16;66459.63;;;1.46;100.00
5988;BME280;3021;51.000;6.980;2024-01-10T13:15:43;66483.34;;;1.63;100.00
5988;BME280;3021;51.000;6.980;2024-01-10T13:18:09;66476.06;;;1.59;100.00
5988;BME280;3021;51.000;6.980;2024-01-10T13:20:37;66478.78;;;1.59;100.00
5988;BME280;3021;51.000;6.980;2024-01-10T13:23:05;66481.25;;;1.63;100.00
5988;BME280;3021;51.000;6.980;2024-01-10T13:25:31;66486.22;;;1.65;100.00
5988;BME280;3021;51.000;6.980;2024-01-10T13:27:56;66493.53;;;1.69;100.00
5988;BME280;3021;51.000;6.980;2024-01-10T13:30:22;66498.03;;;1.81;100.00
5988;BME280;3021;51.000;6.980;2024-01-10T13:32:48;66521.38;;;1.99;100.00
5988;BME280;3021;51.000;6.980;2024-01-10T13:35:14;66512.78;;;1.92;100.00
5988;BME280;3021;51.000;6.980;2024-01-10T13:37:40;66506.88;;;1.84;100.00